createdAt,value
2022-10-09T00:01:54.552Z,7.40
2022-10-09T00:04:27.255Z,7.40
2022-10-09T00:07:00.100Z,7.40
2022-10-09T00:09:32.948Z,7.40
2022-10-09T00:12:05.860Z,7.40
2022-10-09T00:14:38.547Z,7.40
2022-10-09T00:17:11.540Z,7.40
2022-10-09T00:19:44.322Z,7.40
2022-10-09T00:22:17.174Z,7.30
2022-10-09T00:24:49.915Z,7.30
2022-10-09T00:27:23.493Z,7.30
2022-10-09T00:29:56.251Z,7.30
2022-10-09T00:32:29.464Z,7.20
2022-10-09T00:35:02.142Z,7.10
2022-10-09T00:37:34.999Z,7.00
2022-10-09T00:40:08.114Z,6.90
2022-10-09T00:42:41.354Z,6.80
2022-10-09T00:45:21.635Z,6.70
2022-10-09T00:47:59.538Z,6.70
2022-10-09T00:50:41.838Z,6.60
2022-10-09T00:53:18.441Z,6.50
2022-10-09T00:55:51.614Z,6.50
2022-10-09T00:58:25.779Z,6.50
2022-10-09T01:00:58.576Z,6.60
2022-10-09T01:03:31.528Z,6.60
2022-10-09T01:06:28.304Z,6.60
2022-10-09T01:09:11.300Z,6.60
2022-10-09T01:12:06.470Z,6.60
2022-10-09T01:15:15.247Z,6.50
2022-10-09T01:17:50.599Z,6.50
2022-10-09T01:20:30.383Z,6.60
2022-10-09T01:23:15.215Z,6.60
2022-10-09T01:26:09.007Z,6.60
2022-10-09T01:28:46.494Z,6.60
2022-10-09T01:31:22.815Z,6.60
2022-10-09T01:33:55.897Z,6.50
2022-10-09T01:36:31.135Z,6.50
2022-10-09T01:39:06.428Z,6.50
2022-10-09T01:41:39.231Z,6.50
2022-10-09T01:44:21.906Z,6.50
2022-10-09T01:46:55.104Z,6.40
2022-10-09T01:49:54.029Z,6.40
2022-10-09T01:52:42.026Z,6.40
2022-10-09T01:55:33.513Z,6.40
2022-10-09T01:58:25.323Z,6.30
2022-10-09T02:01:26.915Z,6.30
2022-10-09T02:04:03.175Z,6.20
2022-10-09T02:06:40.116Z,6.20
2022-10-09T02:09:15.500Z,6.20
2022-10-09T02:11:54.532Z,6.20
2022-10-09T02:14:28.375Z,6.20
2022-10-09T02:17:09.862Z,6.10
2022-10-09T02:19:56.853Z,6.00
2022-10-09T02:22:32.243Z,6.00
2022-10-09T02:25:07.024Z,6.00
2022-10-09T02:27:40.003Z,5.90
2022-10-09T02:30:14.845Z,5.80
2022-10-09T02:32:53.173Z,5.90
2022-10-09T02:35:26.546Z,5.80
2022-10-09T02:37:59.203Z,5.80
2022-10-09T02:40:32.123Z,5.80
2022-10-09T02:43:04.860Z,5.80
2022-10-09T02:45:37.772Z,5.80
2022-10-09T02:48:10.478Z,5.70
2022-10-09T02:50:43.207Z,5.80
2022-10-09T02:53:15.939Z,5.80
2022-10-09T02:55:48.786Z,5.70
2022-10-09T02:58:21.476Z,5.70
2022-10-09T03:00:54.441Z,5.70
2022-10-09T03:03:27.770Z,5.70
2022-10-09T03:06:02.120Z,5.70
2022-10-09T03:08:39.077Z,5.70
2022-10-09T03:11:14.082Z,5.70
2022-10-09T03:13:47.259Z,5.70
2022-10-09T03:16:23.405Z,5.70
2022-10-09T03:18:56.386Z,5.70
2022-10-09T03:21:29.397Z,5.60
2022-10-09T03:24:02.104Z,5.60
2022-10-09T03:26:34.895Z,5.60
2022-10-09T03:29:07.560Z,5.70
2022-10-09T03:34:25.555Z,5.50
2022-10-09T03:36:58.406Z,5.60
2022-10-09T03:39:32.112Z,5.50
2022-10-09T03:42:05.118Z,5.50
2022-10-09T03:44:37.790Z,5.50
2022-10-09T03:47:10.627Z,5.50
2022-10-09T03:49:43.466Z,5.50
2022-10-09T03:52:16.307Z,5.40
2022-10-09T03:54:49.331Z,5.50
2022-10-09T03:57:22.143Z,5.40
2022-10-09T03:59:54.835Z,5.40
2022-10-09T04:02:27.770Z,5.40
2022-10-09T04:05:00.595Z,5.30
2022-10-09T04:07:34.461Z,5.40
2022-10-09T04:10:07.793Z,5.40
2022-10-09T04:12:40.744Z,5.30
2022-10-09T04:15:13.482Z,5.30
2022-10-09T04:17:46.323Z,5.20
2022-10-09T04:20:20.769Z,5.20
2022-10-09T04:22:53.659Z,5.20
2022-10-09T04:25:26.439Z,5.20
2022-10-09T04:27:59.332Z,5.20
2022-10-09T04:30:32.080Z,5.20
2022-10-09T04:33:09.042Z,5.30
2022-10-09T04:35:45.802Z,5.30
2022-10-09T04:38:19.798Z,5.20
2022-10-09T04:41:01.149Z,5.20
2022-10-09T04:43:34.827Z,5.20
2022-10-09T04:46:11.290Z,5.20
2022-10-09T04:48:46.412Z,5.20
2022-10-09T04:51:19.313Z,5.20
2022-10-09T04:53:52.286Z,5.20
2022-10-09T04:56:25.168Z,5.20
2022-10-09T04:58:58.001Z,5.20
2022-10-09T05:01:34.306Z,5.20
2022-10-09T05:04:10.879Z,5.10
2022-10-09T05:06:43.544Z,5.20
2022-10-09T05:09:16.746Z,5.10
2022-10-09T05:11:49.478Z,5.10
2022-10-09T05:14:22.365Z,5.10
2022-10-09T05:17:13.097Z,5.10
2022-10-09T05:19:46.708Z,5.10
2022-10-09T05:22:19.469Z,5.10
2022-10-09T05:24:54.227Z,5.10
2022-10-09T05:27:26.947Z,5.00
2022-10-09T05:29:59.862Z,5.10
2022-10-09T05:32:33.783Z,5.00
2022-10-09T05:35:08.056Z,5.00
2022-10-09T05:37:43.624Z,5.00
